IVR weather

Inverell Airport
Inverell, New South Wales, Australia

Public forecast

Using degrees Celsius for public forecast. Weather courtesy of forecast.io.

METAR (pilot weather report)

Closest report is Moree Airport, 71.7 nm (132.7 km) WNW. Retrieved 2019/04/19 13:00 UTC (54 minutes ago):

YMOR 191300Z AUTO 10009KT 9999 // NCD 23/13 Q1023

TAF (pilot weather forecast)

Closest forecast is Tamworth Airport, 73.4 nm (136.0 km) SSW. Retrieved 2019/04/19 12:36 UTC (1 hour ago):

TAF TAF YSTW 191042Z 1912/2006 12010KT CAVOK FM191600 12010KT 9999 FEW010 FM200200 09012KT 9999 SCT050